FIN751 EFHK-EDDP
Flight info
| Callsign | FIN751 |
|---|---|
| Flight time | 1h 54m |
| Altitude | 34000 |
| Route | VALOX DCT DANKA DCT ROSAX DCT LEMSI DCT PIMEX P739 DEREX DCT ANFEV DCT GORPI DCT ROBOV DCT PESEL DCT GERGA/N0452F330 M725 OBANI/N0453F340 Z36 POGAB/N0437F280 Z36 BEBKU T950 LUXBO LUXBO1R |
| Aircraft | A320/M-SDE3FGHIRWY/LB1 |
Departure
| Time | 2026-05-07 17:14 |
|---|---|
| Airport | Helsinki Vantaa Airport (EFHK) |
Arrival
| Time | 2026-05-07 19:08 |
|---|---|
| Airport | Leipzig/Halle Airport (EDDP) |
| Time | Latitude | Longitude | Altitude | Speed | Heading |
|---|---|---|---|---|---|
| 2026-05-07 15:30 | 60.31823 | 24.97035 | 162 ft | 0 kts | 243° |
| 2026-05-07 15:46 | 60.31823 | 24.97036 | 162 ft | 0 kts | 243° |
| 2026-05-07 16:04 | 60.31824 | 24.97036 | 162 ft | 0 kts | 243° |
| 2026-05-07 16:05 | 60.31824 | 24.97037 | 162 ft | 0 kts | 243° |
| 2026-05-07 16:22 | 60.31824 | 24.97038 | 162 ft | 0 kts | 243° |
| 2026-05-07 16:37 | 60.31824 | 24.97039 | 162 ft | 0 kts | 243° |
| 2026-05-07 16:55 | 60.31824 | 24.97040 | 161 ft | 0 kts | 243° |
| 2026-05-07 16:59 | 60.31825 | 24.97043 | 161 ft | 2 kts | 243° |
| 2026-05-07 17:00 | 60.31836 | 24.97090 | 161 ft | 4 kts | 253° |
| 2026-05-07 17:00 | 60.31840 | 24.97143 | 161 ft | 4 kts | 275° |
| 2026-05-07 17:00 | 60.31832 | 24.97186 | 161 ft | 3 kts | 328° |
| 2026-05-07 17:00 | 60.31829 | 24.97190 | 161 ft | 3 kts | 333° |
| 2026-05-07 17:04 | 60.31851 | 24.97169 | 161 ft | 7 kts | 334° |
| 2026-05-07 17:05 | 60.31887 | 24.97132 | 161 ft | 5 kts | 333° |
| 2026-05-07 17:05 | 60.31916 | 24.97102 | 161 ft | 4 kts | 333° |
| 2026-05-07 17:05 | 60.31950 | 24.97067 | 161 ft | 5 kts | 333° |
| 2026-05-07 17:05 | 60.31989 | 24.97027 | 161 ft | 6 kts | 333° |
| 2026-05-07 17:06 | 60.32026 | 24.96989 | 161 ft | 5 kts | 332° |
| 2026-05-07 17:06 | 60.32068 | 24.96943 | 161 ft | 7 kts | 331° |
| 2026-05-07 17:06 | 60.32108 | 24.96896 | 161 ft | 6 kts | 329° |
| 2026-05-07 17:06 | 60.32140 | 24.96858 | 161 ft | 5 kts | 329° |
| 2026-05-07 17:07 | 60.32164 | 24.96829 | 161 ft | 3 kts | 329° |
| 2026-05-07 17:07 | 60.32184 | 24.96804 | 161 ft | 7 kts | 330° |
| 2026-05-07 17:07 | 60.32236 | 24.96743 | 161 ft | 9 kts | 331° |
| 2026-05-07 17:07 | 60.32306 | 24.96792 | 161 ft | 13 kts | 46° |
| 2026-05-07 17:08 | 60.32363 | 24.96916 | 161 ft | 12 kts | 47° |
| 2026-05-07 17:08 | 60.32426 | 24.97058 | 159 ft | 15 kts | 48° |
| 2026-05-07 17:08 | 60.32496 | 24.97211 | 161 ft | 15 kts | 46° |
| 2026-05-07 17:08 | 60.32572 | 24.97377 | 161 ft | 17 kts | 48° |
| 2026-05-07 17:09 | 60.32655 | 24.97563 | 161 ft | 19 kts | 49° |
| 2026-05-07 17:09 | 60.32736 | 24.97739 | 161 ft | 14 kts | 46° |
| 2026-05-07 17:09 | 60.32804 | 24.97893 | 161 ft | 16 kts | 47° |
| 2026-05-07 17:09 | 60.32907 | 24.97943 | 162 ft | 17 kts | 339° |
| 2026-05-07 17:10 | 60.32977 | 24.97831 | 165 ft | 8 kts | 312° |
| 2026-05-07 17:10 | 60.32991 | 24.97746 | 165 ft | 6 kts | 262° |
| 2026-05-07 17:10 | 60.32972 | 24.97694 | 165 ft | 4 kts | 227° |
| 2026-05-07 17:10 | 60.32971 | 24.97692 | 165 ft | 0 kts | 226° |
| 2026-05-07 17:13 | 60.32964 | 24.97677 | 165 ft | 8 kts | 226° |
| 2026-05-07 17:13 | 60.32777 | 24.97266 | 163 ft | 75 kts | 227° |
| 2026-05-07 17:13 | 60.32288 | 24.96196 | 163 ft | 131 kts | 227° |
| 2026-05-07 17:13 | 60.31572 | 24.94598 | 254 ft | 167 kts | 229° |
| 2026-05-07 17:14 | 60.30835 | 24.92881 | 1024 ft | 160 kts | 227° |
| 2026-05-07 17:14 | 60.29963 | 24.91464 | 1576 ft | 167 kts | 207° |
| 2026-05-07 17:14 | 60.28873 | 24.90285 | 1862 ft | 189 kts | 206° |
| 2026-05-07 17:14 | 60.27644 | 24.88957 | 2164 ft | 210 kts | 207° |
| 2026-05-07 17:15 | 60.26296 | 24.87491 | 2575 ft | 229 kts | 208° |
| 2026-05-07 17:15 | 60.24874 | 24.85880 | 3166 ft | 244 kts | 212° |
| 2026-05-07 17:15 | 60.23408 | 24.83925 | 3747 ft | 259 kts | 216° |
| 2026-05-07 17:15 | 60.21939 | 24.81846 | 4530 ft | 265 kts | 217° |
| 2026-05-07 17:16 | 60.20422 | 24.79662 | 5350 ft | 271 kts | 217° |
| 2026-05-07 17:16 | 60.18871 | 24.77426 | 6142 ft | 278 kts | 217° |
| 2026-05-07 17:16 | 60.17356 | 24.74911 | 6943 ft | 281 kts | 225° |
| 2026-05-07 17:16 | 60.15964 | 24.72255 | 7867 ft | 279 kts | 226° |
| 2026-05-07 17:17 | 60.14579 | 24.69546 | 8811 ft | 278 kts | 226° |
| 2026-05-07 17:17 | 60.13198 | 24.66828 | 9741 ft | 277 kts | 226° |
| 2026-05-07 17:17 | 60.11817 | 24.64112 | 10462 ft | 284 kts | 226° |
| 2026-05-07 17:17 | 60.10344 | 24.61217 | 10684 ft | 308 kts | 226° |
| 2026-05-07 17:18 | 60.08755 | 24.58106 | 10870 ft | 330 kts | 226° |
| 2026-05-07 17:18 | 60.07079 | 24.54843 | 11388 ft | 340 kts | 226° |
| 2026-05-07 17:18 | 60.05373 | 24.51536 | 12128 ft | 342 kts | 226° |
| 2026-05-07 17:18 | 60.03659 | 24.48219 | 12901 ft | 344 kts | 227° |
| 2026-05-07 17:19 | 60.01931 | 24.44882 | 13678 ft | 346 kts | 227° |
| 2026-05-07 17:19 | 60.00196 | 24.41541 | 14376 ft | 348 kts | 227° |
| 2026-05-07 17:19 | 59.98449 | 24.38181 | 15047 ft | 349 kts | 227° |
| 2026-05-07 17:19 | 59.96696 | 24.34812 | 15687 ft | 351 kts | 227° |
| 2026-05-07 17:20 | 59.94927 | 24.31416 | 16282 ft | 355 kts | 227° |
| 2026-05-07 17:20 | 59.93144 | 24.28000 | 16916 ft | 357 kts | 227° |
| 2026-05-07 17:20 | 59.91340 | 24.24555 | 17567 ft | 359 kts | 228° |
| 2026-05-07 17:20 | 59.89533 | 24.21100 | 18222 ft | 361 kts | 228° |
| 2026-05-07 17:21 | 59.87711 | 24.17621 | 18802 ft | 363 kts | 228° |
| 2026-05-07 17:21 | 59.85881 | 24.14133 | 19354 ft | 365 kts | 228° |
| 2026-05-07 17:21 | 59.84049 | 24.10639 | 19886 ft | 367 kts | 228° |
| 2026-05-07 17:21 | 59.82200 | 24.07117 | 20403 ft | 368 kts | 228° |
| 2026-05-07 17:22 | 59.80371 | 24.03645 | 20908 ft | 370 kts | 228° |
| 2026-05-07 17:22 | 59.78504 | 24.00111 | 21386 ft | 371 kts | 228° |
| 2026-05-07 17:22 | 59.76601 | 23.96521 | 21871 ft | 373 kts | 228° |
| 2026-05-07 17:22 | 59.74740 | 23.93013 | 22327 ft | 375 kts | 228° |
| 2026-05-07 17:23 | 59.72845 | 23.89441 | 22723 ft | 377 kts | 227° |
| 2026-05-07 17:23 | 59.70937 | 23.85847 | 23118 ft | 380 kts | 227° |
| 2026-05-07 17:23 | 59.69013 | 23.82230 | 23529 ft | 382 kts | 227° |
| 2026-05-07 17:23 | 59.67081 | 23.78607 | 23889 ft | 384 kts | 227° |
| 2026-05-07 17:24 | 59.65138 | 23.74974 | 24228 ft | 385 kts | 227° |
| 2026-05-07 17:24 | 59.63183 | 23.71323 | 24569 ft | 387 kts | 227° |
| 2026-05-07 17:24 | 59.61225 | 23.67672 | 24891 ft | 388 kts | 227° |
| 2026-05-07 17:24 | 59.59252 | 23.63997 | 25215 ft | 390 kts | 227° |
| 2026-05-07 17:25 | 59.57274 | 23.60320 | 25525 ft | 392 kts | 227° |
| 2026-05-07 17:25 | 59.55285 | 23.56633 | 25824 ft | 393 kts | 227° |
| 2026-05-07 17:25 | 59.53290 | 23.52937 | 26139 ft | 395 kts | 227° |
| 2026-05-07 17:25 | 59.51285 | 23.49227 | 26435 ft | 396 kts | 227° |
| 2026-05-07 17:26 | 59.49271 | 23.45508 | 26732 ft | 398 kts | 227° |
| 2026-05-07 17:26 | 59.47245 | 23.41778 | 27008 ft | 399 kts | 227° |
| 2026-05-07 17:26 | 59.45213 | 23.38042 | 27278 ft | 401 kts | 227° |
| 2026-05-07 17:26 | 59.43197 | 23.34338 | 27540 ft | 402 kts | 227° |
| 2026-05-07 17:27 | 59.41149 | 23.30575 | 27803 ft | 404 kts | 227° |
| 2026-05-07 17:27 | 59.39093 | 23.26803 | 28035 ft | 405 kts | 227° |
| 2026-05-07 17:27 | 59.37029 | 23.23027 | 28283 ft | 407 kts | 227° |
| 2026-05-07 17:27 | 59.34957 | 23.19247 | 28517 ft | 408 kts | 227° |
| 2026-05-07 17:28 | 59.32873 | 23.15456 | 28715 ft | 411 kts | 227° |
| 2026-05-07 17:28 | 59.30777 | 23.11646 | 28885 ft | 413 kts | 227° |
| 2026-05-07 17:28 | 59.28669 | 23.07817 | 29162 ft | 413 kts | 227° |
| 2026-05-07 17:28 | 59.26561 | 23.03996 | 29365 ft | 413 kts | 227° |
| 2026-05-07 17:29 | 59.24466 | 23.00206 | 29615 ft | 414 kts | 227° |
| 2026-05-07 17:29 | 59.22336 | 22.96367 | 29908 ft | 413 kts | 227° |
| 2026-05-07 17:29 | 59.20227 | 22.92574 | 30200 ft | 413 kts | 227° |
| 2026-05-07 17:29 | 59.18109 | 22.88771 | 30454 ft | 412 kts | 227° |
| 2026-05-07 17:30 | 59.16000 | 22.84990 | 30701 ft | 412 kts | 226° |
| 2026-05-07 17:30 | 59.13895 | 22.81220 | 30954 ft | 411 kts | 226° |
| 2026-05-07 17:30 | 59.11788 | 22.77449 | 31196 ft | 411 kts | 226° |
| 2026-05-07 17:30 | 59.09713 | 22.73741 | 31432 ft | 411 kts | 226° |
| 2026-05-07 17:31 | 59.07606 | 22.69983 | 31666 ft | 411 kts | 226° |
| 2026-05-07 17:31 | 59.05502 | 22.66235 | 31912 ft | 410 kts | 226° |
| 2026-05-07 17:31 | 59.03396 | 22.62492 | 32066 ft | 412 kts | 226° |
| 2026-05-07 17:31 | 59.01280 | 22.58737 | 32279 ft | 412 kts | 226° |
| 2026-05-07 17:32 | 58.99158 | 22.54976 | 32511 ft | 412 kts | 226° |
| 2026-05-07 17:32 | 58.97045 | 22.51234 | 32751 ft | 412 kts | 226° |
| 2026-05-07 17:32 | 58.94928 | 22.47499 | 32995 ft | 412 kts | 226° |
| 2026-05-07 17:32 | 58.93523 | 22.45027 | 33152 ft | 411 kts | 226° |
| 2026-05-07 17:33 | 58.90690 | 22.40054 | 33473 ft | 411 kts | 226° |
| 2026-05-07 17:33 | 58.88570 | 22.36343 | 33716 ft | 411 kts | 226° |
| 2026-05-07 17:33 | 58.86454 | 22.32632 | 33954 ft | 410 kts | 226° |
| 2026-05-07 17:33 | 58.84338 | 22.28917 | 34098 ft | 411 kts | 226° |
| 2026-05-07 17:34 | 58.80114 | 22.21529 | 34123 ft | 413 kts | 225° |
| 2026-05-07 17:34 | 58.75816 | 22.14068 | 34123 ft | 413 kts | 225° |
| 2026-05-07 17:35 | 58.71563 | 22.06711 | 34122 ft | 414 kts | 225° |
| 2026-05-07 17:35 | 58.67276 | 21.99313 | 34122 ft | 414 kts | 225° |
| 2026-05-07 17:36 | 58.62988 | 21.91943 | 34123 ft | 414 kts | 225° |
| 2026-05-07 17:36 | 58.58695 | 21.84579 | 34093 ft | 414 kts | 225° |
| 2026-05-07 17:37 | 58.54366 | 21.77167 | 34101 ft | 415 kts | 225° |
| 2026-05-07 17:37 | 58.50088 | 21.69872 | 34125 ft | 416 kts | 225° |
| 2026-05-07 17:38 | 58.45749 | 21.62517 | 34117 ft | 417 kts | 225° |
| 2026-05-07 17:38 | 58.41400 | 21.55169 | 34116 ft | 418 kts | 225° |
| 2026-05-07 17:39 | 58.37035 | 21.47810 | 34119 ft | 419 kts | 225° |
| 2026-05-07 17:39 | 58.32669 | 21.40463 | 34096 ft | 420 kts | 225° |
| 2026-05-07 17:40 | 58.28282 | 21.33100 | 34104 ft | 421 kts | 224° |
| 2026-05-07 17:40 | 58.23880 | 21.25772 | 34123 ft | 421 kts | 224° |
| 2026-05-07 17:41 | 58.19506 | 21.18387 | 34120 ft | 420 kts | 226° |
| 2026-05-07 17:41 | 58.15367 | 21.10564 | 34124 ft | 420 kts | 229° |
| 2026-05-07 17:42 | 58.11306 | 21.02623 | 34095 ft | 420 kts | 228° |
| 2026-05-07 17:42 | 58.07192 | 20.94754 | 34107 ft | 421 kts | 227° |
| 2026-05-07 17:43 | 58.03052 | 20.87016 | 34116 ft | 422 kts | 227° |
| 2026-05-07 17:43 | 57.98870 | 20.79240 | 34121 ft | 422 kts | 227° |
| 2026-05-07 17:44 | 57.94693 | 20.71473 | 34130 ft | 422 kts | 227° |
| 2026-05-07 17:44 | 57.90508 | 20.63712 | 34109 ft | 422 kts | 227° |
| 2026-05-07 17:45 | 57.87030 | 20.57272 | 34115 ft | 422 kts | 227° |
| 2026-05-07 17:45 | 57.82133 | 20.48230 | 34128 ft | 422 kts | 226° |
| 2026-05-07 17:46 | 57.78644 | 20.41816 | 34139 ft | 424 kts | 227° |
| 2026-05-07 17:46 | 57.74415 | 20.34087 | 34120 ft | 425 kts | 227° |
| 2026-05-07 17:47 | 57.70170 | 20.26354 | 34116 ft | 427 kts | 227° |
| 2026-05-07 17:47 | 57.65891 | 20.18653 | 34105 ft | 428 kts | 225° |
| 2026-05-07 17:48 | 57.61476 | 20.11179 | 34108 ft | 429 kts | 224° |
| 2026-05-07 17:48 | 57.56996 | 20.03800 | 34113 ft | 430 kts | 224° |
| 2026-05-07 17:49 | 57.52524 | 19.96404 | 34120 ft | 430 kts | 224° |
| 2026-05-07 17:49 | 57.48064 | 19.88984 | 34123 ft | 430 kts | 224° |
| 2026-05-07 17:50 | 57.43628 | 19.81614 | 34122 ft | 430 kts | 224° |
| 2026-05-07 17:50 | 57.39162 | 19.74235 | 34134 ft | 430 kts | 224° |
| 2026-05-07 17:51 | 57.34691 | 19.66889 | 34142 ft | 429 kts | 223° |
| 2026-05-07 17:51 | 57.30220 | 19.59553 | 34145 ft | 429 kts | 223° |
| 2026-05-07 17:52 | 57.25745 | 19.52238 | 34145 ft | 429 kts | 223° |
| 2026-05-07 17:52 | 57.21267 | 19.44934 | 34145 ft | 429 kts | 223° |
| 2026-05-07 17:53 | 57.16783 | 19.37655 | 34140 ft | 429 kts | 223° |
| 2026-05-07 17:53 | 57.12290 | 19.30397 | 34140 ft | 429 kts | 223° |
| 2026-05-07 17:54 | 57.07796 | 19.23151 | 34153 ft | 430 kts | 223° |
| 2026-05-07 17:54 | 57.03285 | 19.15887 | 34116 ft | 432 kts | 223° |
| 2026-05-07 17:55 | 56.98769 | 19.08659 | 34091 ft | 434 kts | 223° |
| 2026-05-07 17:55 | 56.94203 | 19.01381 | 34108 ft | 436 kts | 223° |
| 2026-05-07 17:56 | 56.89623 | 18.94107 | 34116 ft | 436 kts | 223° |
| 2026-05-07 17:56 | 56.85032 | 18.86820 | 34119 ft | 437 kts | 223° |
| 2026-05-07 17:57 | 56.81212 | 18.80778 | 34122 ft | 437 kts | 223° |
| 2026-05-07 17:57 | 56.75835 | 18.72299 | 34135 ft | 437 kts | 222° |
| 2026-05-07 17:58 | 56.71236 | 18.65081 | 34145 ft | 436 kts | 222° |
| 2026-05-07 17:58 | 56.66648 | 18.57905 | 34154 ft | 435 kts | 222° |
| 2026-05-07 17:59 | 56.62090 | 18.50803 | 34150 ft | 434 kts | 222° |
| 2026-05-07 17:59 | 56.57467 | 18.43631 | 34151 ft | 434 kts | 222° |
| 2026-05-07 18:00 | 56.52902 | 18.36565 | 34149 ft | 433 kts | 221° |
| 2026-05-07 18:00 | 56.48321 | 18.29487 | 34158 ft | 432 kts | 221° |
| 2026-05-07 18:01 | 56.43749 | 18.22441 | 34155 ft | 431 kts | 221° |
| 2026-05-07 18:01 | 56.39180 | 18.15420 | 34152 ft | 431 kts | 221° |
| 2026-05-07 18:02 | 56.32310 | 18.04935 | 34119 ft | 432 kts | 221° |
| 2026-05-07 18:03 | 56.27701 | 17.97936 | 34114 ft | 434 kts | 221° |
| 2026-05-07 18:03 | 56.23079 | 17.90925 | 34116 ft | 435 kts | 221° |
| 2026-05-07 18:04 | 56.18472 | 17.83964 | 34118 ft | 436 kts | 221° |
| 2026-05-07 18:04 | 56.13825 | 17.76969 | 34122 ft | 436 kts | 221° |
| 2026-05-07 18:05 | 56.09168 | 17.69967 | 34120 ft | 436 kts | 220° |
| 2026-05-07 18:05 | 56.04520 | 17.63007 | 34143 ft | 435 kts | 220° |
| 2026-05-07 18:06 | 55.99870 | 17.56068 | 34147 ft | 435 kts | 220° |
| 2026-05-07 18:06 | 55.95228 | 17.49156 | 34147 ft | 434 kts | 220° |
| 2026-05-07 18:07 | 55.90575 | 17.42268 | 34144 ft | 434 kts | 220° |
| 2026-05-07 18:07 | 55.85925 | 17.35408 | 34150 ft | 434 kts | 220° |
| 2026-05-07 18:08 | 55.81276 | 17.28566 | 34156 ft | 433 kts | 220° |
| 2026-05-07 18:08 | 55.76851 | 17.21446 | 34151 ft | 432 kts | 227° |
| 2026-05-07 18:09 | 55.72746 | 17.13650 | 34152 ft | 432 kts | 227° |
| 2026-05-07 18:09 | 55.68623 | 17.05909 | 34151 ft | 432 kts | 227° |
| 2026-05-07 18:10 | 55.64493 | 16.98173 | 34134 ft | 433 kts | 227° |
| 2026-05-07 18:10 | 55.60348 | 16.90406 | 34124 ft | 435 kts | 227° |
| 2026-05-07 18:11 | 55.56183 | 16.82640 | 34119 ft | 436 kts | 226° |
| 2026-05-07 18:11 | 55.52001 | 16.74875 | 34121 ft | 437 kts | 226° |
| 2026-05-07 18:12 | 55.47806 | 16.67110 | 34125 ft | 437 kts | 226° |
| 2026-05-07 18:12 | 55.43604 | 16.59351 | 34128 ft | 437 kts | 226° |
| 2026-05-07 18:13 | 55.39430 | 16.51672 | 34132 ft | 437 kts | 226° |
| 2026-05-07 18:13 | 55.35217 | 16.43936 | 34135 ft | 437 kts | 226° |
| 2026-05-07 18:14 | 55.31001 | 16.36224 | 34136 ft | 438 kts | 226° |
| 2026-05-07 18:14 | 55.26781 | 16.28528 | 34142 ft | 438 kts | 226° |
| 2026-05-07 18:15 | 55.22556 | 16.20845 | 34148 ft | 438 kts | 226° |
| 2026-05-07 18:15 | 55.18331 | 16.13198 | 34152 ft | 437 kts | 225° |
| 2026-05-07 18:16 | 55.14105 | 16.05576 | 34153 ft | 436 kts | 225° |
| 2026-05-07 18:16 | 55.09880 | 15.97984 | 34152 ft | 435 kts | 225° |
| 2026-05-07 18:17 | 55.05655 | 15.90416 | 34153 ft | 435 kts | 225° |
| 2026-05-07 18:17 | 55.01424 | 15.82854 | 34151 ft | 435 kts | 225° |
| 2026-05-07 18:18 | 54.97196 | 15.75321 | 34154 ft | 435 kts | 225° |
| 2026-05-07 18:18 | 54.92970 | 15.67890 | 34143 ft | 435 kts | 222° |
| 2026-05-07 18:19 | 54.87983 | 15.62004 | 34142 ft | 435 kts | 210° |
| 2026-05-07 18:19 | 54.82674 | 15.56805 | 34140 ft | 435 kts | 210° |
| 2026-05-07 18:20 | 54.77440 | 15.51682 | 34146 ft | 435 kts | 209° |
| 2026-05-07 18:20 | 54.72158 | 15.46545 | 34148 ft | 435 kts | 209° |
| 2026-05-07 18:21 | 54.66881 | 15.41424 | 34142 ft | 435 kts | 209° |
| 2026-05-07 18:21 | 54.61603 | 15.36308 | 34145 ft | 435 kts | 209° |
| 2026-05-07 18:22 | 54.56316 | 15.31212 | 34144 ft | 435 kts | 209° |
| 2026-05-07 18:22 | 54.51030 | 15.26127 | 34143 ft | 435 kts | 209° |
| 2026-05-07 18:23 | 54.45738 | 15.21066 | 34140 ft | 435 kts | 209° |
| 2026-05-07 18:23 | 54.40477 | 15.16050 | 34131 ft | 435 kts | 209° |
| 2026-05-07 18:24 | 54.35153 | 15.10970 | 34133 ft | 435 kts | 209° |
| 2026-05-07 18:24 | 54.29886 | 15.05969 | 34141 ft | 435 kts | 209° |
| 2026-05-07 18:25 | 54.24581 | 15.00961 | 34132 ft | 437 kts | 209° |
| 2026-05-07 18:25 | 54.19247 | 14.95932 | 34120 ft | 438 kts | 209° |
| 2026-05-07 18:26 | 54.13902 | 14.90893 | 34119 ft | 439 kts | 209° |
| 2026-05-07 18:26 | 54.08552 | 14.85864 | 34120 ft | 440 kts | 208° |
| 2026-05-07 18:27 | 54.03184 | 14.80842 | 34122 ft | 440 kts | 208° |
| 2026-05-07 18:27 | 53.97819 | 14.75843 | 34123 ft | 440 kts | 208° |
| 2026-05-07 18:28 | 53.92450 | 14.70847 | 34125 ft | 440 kts | 208° |
| 2026-05-07 18:28 | 53.87071 | 14.65861 | 34125 ft | 440 kts | 208° |
| 2026-05-07 18:29 | 53.81718 | 14.60912 | 34127 ft | 441 kts | 208° |
| 2026-05-07 18:29 | 53.76335 | 14.55950 | 34124 ft | 441 kts | 208° |
| 2026-05-07 18:30 | 53.70945 | 14.50994 | 34115 ft | 441 kts | 208° |
| 2026-05-07 18:30 | 53.65553 | 14.46050 | 34117 ft | 441 kts | 208° |
| 2026-05-07 18:31 | 53.60154 | 14.41127 | 34123 ft | 441 kts | 208° |
| 2026-05-07 18:31 | 53.54752 | 14.36219 | 34123 ft | 441 kts | 208° |
| 2026-05-07 18:32 | 53.49139 | 14.32095 | 34115 ft | 441 kts | 195° |
| 2026-05-07 18:32 | 53.43122 | 14.30012 | 34115 ft | 442 kts | 191° |
| 2026-05-07 18:33 | 53.37094 | 14.28006 | 34108 ft | 442 kts | 192° |
| 2026-05-07 18:33 | 53.31053 | 14.25988 | 34109 ft | 442 kts | 192° |
| 2026-05-07 18:34 | 53.25016 | 14.23968 | 34105 ft | 442 kts | 192° |
| 2026-05-07 18:34 | 53.19010 | 14.21972 | 34104 ft | 443 kts | 192° |
| 2026-05-07 18:35 | 53.12962 | 14.20042 | 34074 ft | 444 kts | 190° |
| 2026-05-07 18:35 | 53.09901 | 14.19300 | 33529 ft | 445 kts | 187° |
| 2026-05-07 18:35 | 53.06824 | 14.18737 | 32980 ft | 445 kts | 186° |
| 2026-05-07 18:35 | 53.03740 | 14.18271 | 32445 ft | 445 kts | 185° |
| 2026-05-07 18:36 | 53.00644 | 14.17820 | 31923 ft | 448 kts | 185° |
| 2026-05-07 18:36 | 52.97529 | 14.17340 | 31409 ft | 452 kts | 185° |
| 2026-05-07 18:36 | 52.94391 | 14.16811 | 30905 ft | 454 kts | 185° |
| 2026-05-07 18:36 | 52.91238 | 14.16242 | 30410 ft | 457 kts | 185° |
| 2026-05-07 18:37 | 52.88068 | 14.15644 | 29881 ft | 459 kts | 186° |
| 2026-05-07 18:37 | 52.84886 | 14.15037 | 29303 ft | 461 kts | 186° |
| 2026-05-07 18:37 | 52.81696 | 14.14436 | 28735 ft | 463 kts | 186° |
| 2026-05-07 18:37 | 52.79573 | 14.14039 | 28368 ft | 463 kts | 186° |
| 2026-05-07 18:38 | 52.75339 | 14.13260 | 27642 ft | 461 kts | 186° |
| 2026-05-07 18:38 | 52.72162 | 14.12686 | 27110 ft | 458 kts | 186° |
| 2026-05-07 18:38 | 52.69004 | 14.12119 | 26586 ft | 454 kts | 186° |
| 2026-05-07 18:38 | 52.65876 | 14.11554 | 26075 ft | 451 kts | 186° |
| 2026-05-07 18:39 | 52.63772 | 14.11170 | 25733 ft | 449 kts | 186° |
| 2026-05-07 18:39 | 52.60682 | 14.10611 | 25235 ft | 446 kts | 186° |
| 2026-05-07 18:39 | 52.57605 | 14.10060 | 24742 ft | 443 kts | 186° |
| 2026-05-07 18:39 | 52.54553 | 14.09514 | 24261 ft | 440 kts | 187° |
| 2026-05-07 18:40 | 52.51513 | 14.08966 | 23789 ft | 437 kts | 186° |
| 2026-05-07 18:40 | 52.48496 | 14.08419 | 23253 ft | 433 kts | 186° |
| 2026-05-07 18:40 | 52.45545 | 14.07885 | 22706 ft | 429 kts | 186° |
| 2026-05-07 18:40 | 52.42592 | 14.07357 | 22165 ft | 425 kts | 187° |
| 2026-05-07 18:41 | 52.39663 | 14.06832 | 21627 ft | 421 kts | 187° |
| 2026-05-07 18:41 | 52.36758 | 14.06306 | 21097 ft | 417 kts | 187° |
| 2026-05-07 18:41 | 52.33885 | 14.05786 | 20593 ft | 414 kts | 187° |
| 2026-05-07 18:41 | 52.31031 | 14.05275 | 20122 ft | 410 kts | 187° |
| 2026-05-07 18:42 | 52.28199 | 14.04771 | 19674 ft | 407 kts | 187° |
| 2026-05-07 18:42 | 52.25396 | 14.04273 | 19236 ft | 404 kts | 187° |
| 2026-05-07 18:42 | 52.22606 | 14.03781 | 18801 ft | 401 kts | 187° |
| 2026-05-07 18:42 | 52.19838 | 14.03294 | 18366 ft | 398 kts | 187° |
| 2026-05-07 18:43 | 52.17094 | 14.02809 | 17876 ft | 396 kts | 187° |
| 2026-05-07 18:43 | 52.14359 | 14.02325 | 17383 ft | 393 kts | 187° |
| 2026-05-07 18:43 | 52.11690 | 14.01853 | 17089 ft | 391 kts | 187° |
| 2026-05-07 18:43 | 52.08956 | 14.01365 | 16860 ft | 390 kts | 187° |
| 2026-05-07 18:44 | 52.06258 | 14.00879 | 16626 ft | 389 kts | 187° |
| 2026-05-07 18:44 | 52.03610 | 14.00405 | 16399 ft | 388 kts | 187° |
| 2026-05-07 18:44 | 52.00932 | 13.99934 | 16176 ft | 386 kts | 187° |
| 2026-05-07 18:44 | 51.98271 | 13.99327 | 16056 ft | 384 kts | 195° |
| 2026-05-07 18:45 | 51.95811 | 13.97701 | 15942 ft | 383 kts | 212° |
| 2026-05-07 18:45 | 51.93769 | 13.95007 | 15718 ft | 380 kts | 225° |
| 2026-05-07 18:45 | 51.91900 | 13.91947 | 15489 ft | 379 kts | 226° |
| 2026-05-07 18:45 | 51.90061 | 13.88900 | 15264 ft | 378 kts | 226° |
| 2026-05-07 18:46 | 51.88229 | 13.85853 | 15042 ft | 377 kts | 226° |
| 2026-05-07 18:46 | 51.86402 | 13.82827 | 14819 ft | 375 kts | 226° |
| 2026-05-07 18:46 | 51.84576 | 13.79811 | 14596 ft | 375 kts | 226° |
| 2026-05-07 18:46 | 51.82752 | 13.76812 | 14377 ft | 374 kts | 225° |
| 2026-05-07 18:47 | 51.80930 | 13.73824 | 14148 ft | 372 kts | 225° |
| 2026-05-07 18:47 | 51.79114 | 13.70846 | 13953 ft | 372 kts | 225° |
| 2026-05-07 18:47 | 51.77295 | 13.67868 | 13707 ft | 372 kts | 225° |
| 2026-05-07 18:47 | 51.75479 | 13.64897 | 13468 ft | 371 kts | 225° |
| 2026-05-07 18:48 | 51.73668 | 13.61939 | 13226 ft | 370 kts | 225° |
| 2026-05-07 18:48 | 51.71866 | 13.58998 | 12985 ft | 367 kts | 225° |
| 2026-05-07 18:48 | 51.70075 | 13.56076 | 12754 ft | 366 kts | 225° |
| 2026-05-07 18:48 | 51.68288 | 13.53167 | 12519 ft | 364 kts | 225° |
| 2026-05-07 18:49 | 51.66506 | 13.50276 | 12286 ft | 363 kts | 225° |
| 2026-05-07 18:49 | 51.64727 | 13.47392 | 12099 ft | 362 kts | 225° |
| 2026-05-07 18:49 | 51.62951 | 13.44519 | 12082 ft | 362 kts | 225° |
| 2026-05-07 18:49 | 51.61179 | 13.41654 | 12089 ft | 362 kts | 225° |
| 2026-05-07 18:50 | 51.59401 | 13.38781 | 12087 ft | 362 kts | 225° |
| 2026-05-07 18:50 | 51.57651 | 13.35955 | 12088 ft | 362 kts | 224° |
| 2026-05-07 18:50 | 51.55872 | 13.33083 | 12088 ft | 362 kts | 225° |
| 2026-05-07 18:50 | 51.54096 | 13.30217 | 12089 ft | 362 kts | 225° |
| 2026-05-07 18:51 | 51.52391 | 13.27253 | 12091 ft | 361 kts | 231° |
| 2026-05-07 18:51 | 51.50956 | 13.23951 | 12089 ft | 360 kts | 239° |
| 2026-05-07 18:51 | 51.49834 | 13.20361 | 12090 ft | 361 kts | 247° |
| 2026-05-07 18:51 | 51.49040 | 13.16550 | 12090 ft | 361 kts | 255° |
| 2026-05-07 18:52 | 51.48587 | 13.12590 | 12090 ft | 362 kts | 263° |
| 2026-05-07 18:52 | 51.48454 | 13.08563 | 12092 ft | 362 kts | 270° |
| 2026-05-07 18:52 | 51.48644 | 13.04533 | 12097 ft | 363 kts | 278° |
| 2026-05-07 18:52 | 51.49202 | 13.00584 | 12092 ft | 364 kts | 287° |
| 2026-05-07 18:53 | 51.50125 | 12.96812 | 12096 ft | 364 kts | 295° |
| 2026-05-07 18:53 | 51.51373 | 12.93273 | 12099 ft | 365 kts | 301° |
| 2026-05-07 18:53 | 51.52712 | 12.89803 | 12097 ft | 365 kts | 301° |
| 2026-05-07 18:53 | 51.54046 | 12.86327 | 12098 ft | 365 kts | 301° |
| 2026-05-07 18:54 | 51.55343 | 12.82829 | 12101 ft | 365 kts | 296° |
| 2026-05-07 18:54 | 51.56317 | 12.79082 | 12100 ft | 364 kts | 287° |
| 2026-05-07 18:54 | 51.56885 | 12.75132 | 12100 ft | 363 kts | 277° |
| 2026-05-07 18:54 | 51.57026 | 12.71080 | 12099 ft | 362 kts | 267° |
| 2026-05-07 18:55 | 51.56863 | 12.67043 | 12094 ft | 362 kts | 265° |
| 2026-05-07 18:55 | 51.56683 | 12.62997 | 12094 ft | 363 kts | 265° |
| 2026-05-07 18:55 | 51.56501 | 12.58952 | 12096 ft | 365 kts | 267° |
| 2026-05-07 18:55 | 51.56321 | 12.54875 | 12095 ft | 367 kts | 267° |
| 2026-05-07 18:56 | 51.56144 | 12.50831 | 11880 ft | 367 kts | 267° |
| 2026-05-07 18:56 | 51.55968 | 12.46793 | 11507 ft | 352 kts | 267° |
| 2026-05-07 18:56 | 51.55799 | 12.42982 | 11132 ft | 332 kts | 267° |
| 2026-05-07 18:56 | 51.55636 | 12.39386 | 10764 ft | 314 kts | 267° |
| 2026-05-07 18:57 | 51.55479 | 12.35967 | 10410 ft | 300 kts | 267° |
| 2026-05-07 18:57 | 51.55329 | 12.32675 | 10095 ft | 293 kts | 267° |
| 2026-05-07 18:57 | 51.55180 | 12.29410 | 9762 ft | 292 kts | 267° |
| 2026-05-07 18:57 | 51.55032 | 12.26168 | 9412 ft | 289 kts | 266° |
| 2026-05-07 18:58 | 51.54883 | 12.22959 | 9067 ft | 288 kts | 266° |
| 2026-05-07 18:58 | 51.54735 | 12.19761 | 8720 ft | 286 kts | 266° |
| 2026-05-07 18:58 | 51.54588 | 12.16587 | 8383 ft | 284 kts | 266° |
| 2026-05-07 18:58 | 51.54440 | 12.13424 | 8127 ft | 282 kts | 266° |
| 2026-05-07 18:59 | 51.54291 | 12.10276 | 8096 ft | 283 kts | 267° |
| 2026-05-07 18:59 | 51.54137 | 12.07118 | 8103 ft | 284 kts | 266° |
| 2026-05-07 18:59 | 51.53982 | 12.03919 | 7625 ft | 289 kts | 266° |
| 2026-05-07 18:59 | 51.53825 | 12.00725 | 7122 ft | 283 kts | 266° |
| 2026-05-07 19:00 | 51.53671 | 11.97596 | 6630 ft | 279 kts | 266° |
| 2026-05-07 19:00 | 51.53520 | 11.94512 | 6110 ft | 276 kts | 266° |
| 2026-05-07 19:00 | 51.53371 | 11.91449 | 5592 ft | 274 kts | 266° |
| 2026-05-07 19:00 | 51.53221 | 11.88394 | 5079 ft | 276 kts | 266° |
| 2026-05-07 19:01 | 51.53012 | 11.85370 | 4561 ft | 277 kts | 256° |
| 2026-05-07 19:01 | 51.52139 | 11.82635 | 4037 ft | 278 kts | 228° |
| 2026-05-07 19:01 | 51.50580 | 11.80854 | 3518 ft | 277 kts | 199° |
| 2026-05-07 19:01 | 51.48705 | 11.80451 | 3091 ft | 270 kts | 171° |
| 2026-05-07 19:02 | 51.46920 | 11.81006 | 3018 ft | 248 kts | 165° |
| 2026-05-07 19:02 | 51.45309 | 11.81617 | 3029 ft | 232 kts | 163° |
| 2026-05-07 19:02 | 51.43892 | 11.82727 | 3042 ft | 229 kts | 134° |
| 2026-05-07 19:02 | 51.42966 | 11.84765 | 3033 ft | 226 kts | 117° |
| 2026-05-07 19:03 | 51.42232 | 11.86991 | 3034 ft | 226 kts | 115° |
| 2026-05-07 19:03 | 51.41656 | 11.89321 | 3032 ft | 224 kts | 97° |
| 2026-05-07 19:03 | 51.41677 | 11.91804 | 3037 ft | 224 kts | 84° |
| 2026-05-07 19:03 | 51.41804 | 11.94300 | 3035 ft | 224 kts | 84° |
| 2026-05-07 19:04 | 51.41923 | 11.96744 | 3024 ft | 214 kts | 84° |
| 2026-05-07 19:04 | 51.42035 | 11.99038 | 3022 ft | 199 kts | 84° |
| 2026-05-07 19:04 | 51.42140 | 12.01173 | 2944 ft | 188 kts | 84° |
| 2026-05-07 19:04 | 51.42241 | 12.03233 | 2750 ft | 184 kts | 84° |
| 2026-05-07 19:05 | 51.42340 | 12.05267 | 2503 ft | 182 kts | 83° |
| 2026-05-07 19:05 | 51.42436 | 12.07252 | 2294 ft | 176 kts | 84° |
| 2026-05-07 19:05 | 51.42529 | 12.09171 | 2053 ft | 166 kts | 84° |
| 2026-05-07 19:05 | 51.42618 | 12.11011 | 1807 ft | 171 kts | 84° |
| 2026-05-07 19:06 | 51.42707 | 12.12855 | 1565 ft | 158 kts | 84° |
| 2026-05-07 19:06 | 51.42862 | 12.16105 | 1157 ft | 141 kts | 83° |
| 2026-05-07 19:06 | 51.42936 | 12.17663 | 958 ft | 140 kts | 84° |
| 2026-05-07 19:07 | 51.43010 | 12.19218 | 768 ft | 140 kts | 83° |
| 2026-05-07 19:07 | 51.43083 | 12.20739 | 583 ft | 138 kts | 83° |
| 2026-05-07 19:07 | 51.43154 | 12.22264 | 440 ft | 131 kts | 84° |
| 2026-05-07 19:07 | 51.43211 | 12.23332 | 449 ft | 56 kts | 86° |
| 2026-05-07 19:08 | 51.43235 | 12.23874 | 447 ft | 46 kts | 86° |
| 2026-05-07 19:08 | 51.43248 | 12.24351 | 441 ft | 37 kts | 92° |
| 2026-05-07 19:08 | 51.43187 | 12.24691 | 452 ft | 20 kts | 116° |
| 2026-05-07 19:08 | 51.43123 | 12.24901 | 453 ft | 22 kts | 116° |
| 2026-05-07 19:09 | 51.43095 | 12.24997 | 453 ft | 0 kts | 115° |
| 2026-05-07 19:10 | 51.43090 | 12.25010 | 454 ft | 2 kts | 116° |
| 2026-05-07 19:10 | 51.43087 | 12.25022 | 452 ft | 2 kts | 116° |
| 2026-05-07 19:11 | 51.43031 | 12.25104 | 450 ft | 19 kts | 164° |
| 2026-05-07 19:11 | 51.42887 | 12.25066 | 451 ft | 21 kts | 193° |
| 2026-05-07 19:11 | 51.42750 | 12.25016 | 458 ft | 18 kts | 193° |
| 2026-05-07 19:11 | 51.42643 | 12.24973 | 464 ft | 13 kts | 196° |
| 2026-05-07 19:12 | 51.42546 | 12.24932 | 469 ft | 16 kts | 196° |
| 2026-05-07 19:12 | 51.42431 | 12.24859 | 473 ft | 18 kts | 201° |
| 2026-05-07 19:12 | 51.42302 | 12.24832 | 475 ft | 20 kts | 192° |
| 2026-05-07 19:12 | 51.42149 | 12.24779 | 487 ft | 25 kts | 193° |
| 2026-05-07 19:13 | 51.41992 | 12.24720 | 490 ft | 24 kts | 194° |